Time;durP1;ratioP1;P1;durP2;ratioP2;P2;SDS_P1;SDS_P2;PMS_P1;PMS_P2;Temp;Humidity;BMP_temperature;BMP_pressure;BME280_temperature;BME280_humidity;BME280_pressure;Samples;Min_cycle;Max_cycle;Signal;HPM_P1;HPM_P2
2023/01/20 00:00:13;;;;;;;57.08;35.05;;;;;;;;;;5027712;28;20093;-61
2023/01/20 00:02:39;;;;;;;58.38;34.55;;;;;;;;;;5028658;28;20049;-59
2023/01/20 00:05:06;;;;;;;60.72;36.72;;;;;;;;;;5028476;28;20037;-60
2023/01/20 00:07:33;;;;;;;57.65;33.53;;;;;;;;;;5028904;28;20025;-60
2023/01/20 00:09:59;;;;;;;64.60;35.00;;;;;;;;;;5029096;28;20400;-61
2023/01/20 00:12:25;;;;;;;56.25;34.28;;;;;;;;;;5033189;28;20025;-59
2023/01/20 00:14:51;;;;;;;58.38;32.70;;;;;;;;;;5035136;28;20026;-61
2023/01/20 00:17:17;;;;;;;52.45;30.95;;;;;;;;;;5035845;28;20136;-60
2023/01/20 00:19:43;;;;;;;49.63;30.58;;;;;;;;;;5034183;28;20033;-60
2023/01/20 00:22:09;;;;;;;48.42;29.90;;;;;;;;;;5033422;28;20033;-59
2023/01/20 00:24:35;;;;;;;55.35;33.50;;;;;;;;;;5034817;28;20056;-55
2023/01/20 00:27:01;;;;;;;55.15;33.55;;;;;;;;;;5033510;28;20518;-56
2023/01/20 00:29:27;;;;;;;57.40;34.15;;;;;;;;;;5033889;28;20029;-56
2023/01/20 00:31:53;;;;;;;53.30;34.95;;;;;;;;;;5035001;28;20036;-59
2023/01/20 00:34:19;;;;;;;54.08;35.35;;;;;;;;;;5038290;28;20028;-59
2023/01/20 00:36:45;;;;;;;57.05;33.30;;;;;;;;;;5077299;23;20059;-59
2023/01/20 00:39:11;;;;;;;61.92;36.15;;;;;;;;;;5057122;28;20091;-59
2023/01/20 00:41:37;;;;;;;51.65;31.13;;;;;;;;;;5055592;28;20028;-59
2023/01/20 00:44:03;;;;;;;61.65;36.67;;;;;;;;;;5056122;28;20025;-61
2023/01/20 00:46:29;;;;;;;54.65;34.30;;;;;;;;;;5070748;28;20043;-58
2023/01/20 00:48:55;;;;;;;56.17;31.88;;;;;;;;;;5076903;28;20059;-61
2023/01/20 00:51:21;;;;;;;50.35;28.77;;;;;;;;;;5076751;28;20055;-57
2023/01/20 00:53:47;;;;;;;55.90;31.65;;;;;;;;;;5077710;28;20031;-61
2023/01/20 00:56:13;;;;;;;55.08;33.28;;;;;;;;;;5077759;28;20442;-61
2023/01/20 00:58:42;;;;;;;52.78;34.30;;;;;;;;;;5077774;28;20046;-59
2023/01/20 01:01:08;;;;;;;52.88;32.95;;;;;;;;;;5077548;28;20103;-59
2023/01/20 01:03:34;;;;;;;53.40;31.67;;;;;;;;;;5077378;28;20025;-60
2023/01/20 01:06:10;;;;;;;56.08;33.53;;;;;;;;;;5077531;28;20051;-60
2023/01/20 01:08:36;;;;;;;64.15;32.85;;;;;;;;;;5077584;28;20028;-60
2023/01/20 01:11:03;;;;;;;60.15;33.13;;;;;;;;;;5077677;28;20480;-57
2023/01/20 01:13:30;;;;;;;51.97;29.73;;;;;;;;;;5077565;28;20036;-58
2023/01/20 01:15:56;;;;;;;49.70;28.98;;;;;;;;;;5077632;28;20028;-59
2023/01/20 01:18:22;;;;;;;51.80;29.83;;;;;;;;;;5077724;28;20029;-59
2023/01/20 01:20:48;;;;;;;55.67;33.40;;;;;;;;;;5077621;28;20032;-59
2023/01/20 01:23:14;;;;;;;52.53;31.23;;;;;;;;;;5076141;28;20082;-59
2023/01/20 01:25:40;;;;;;;54.60;32.75;;;;;;;;;;5074345;28;20021;-57
2023/01/20 01:28:06;;;;;;;46.63;29.58;;;;;;;;;;5074482;28;20024;-53
2023/01/20 01:30:32;;;;;;;52.67;30.10;;;;;;;;;;5074321;28;20017;-56
2023/01/20 01:32:58;;;;;;;54.70;32.30;;;;;;;;;;5074234;28;20027;-55
2023/01/20 01:35:24;;;;;;;52.90;29.92;;;;;;;;;;5073956;28;20032;-59
2023/01/20 01:37:50;;;;;;;54.05;29.55;;;;;;;;;;5074142;28;20025;-59
2023/01/20 01:40:17;;;;;;;49.55;29.38;;;;;;;;;;5074138;28;20028;-59
2023/01/20 01:42:43;;;;;;;52.38;30.90;;;;;;;;;;5072655;28;20119;-58
2023/01/20 01:45:12;;;;;;;51.38;31.80;;;;;;;;;;5073711;28;20112;-56
2023/01/20 01:47:40;;;;;;;48.83;30.52;;;;;;;;;;5073831;28;20028;-54
2023/01/20 01:50:07;;;;;;;48.38;29.10;;;;;;;;;;5072681;28;20042;-57
2023/01/20 01:52:33;;;;;;;56.47;31.65;;;;;;;;;;5073869;28;20040;-61
2023/01/20 01:55:00;;;;;;;52.95;31.25;;;;;;;;;;5073469;28;20029;-59
2023/01/20 01:57:26;;;;;;;66.47;32.38;;;;;;;;;;5072480;28;20419;-58
2023/01/20 01:59:52;;;;;;;58.00;31.23;;;;;;;;;;5072296;28;20540;-55
2023/01/20 02:02:18;;;;;;;52.97;31.85;;;;;;;;;;5073531;28;20082;-58
2023/01/20 02:04:44;;;;;;;59.83;32.58;;;;;;;;;;5073223;28;20028;-57
2023/01/20 02:07:15;;;;;;;58.83;35.08;;;;;;;;;;5073534;28;20033;-57
2023/01/20 02:09:42;;;;;;;58.03;36.25;;;;;;;;;;5073508;28;20020;-56
2023/01/20 02:12:10;;;;;;;53.85;33.13;;;;;;;;;;5073317;28;20074;-57
2023/01/20 02:14:40;;;;;;;55.65;33.78;;;;;;;;;;5073184;28;20024;-58
2023/01/20 02:17:06;;;;;;;60.65;34.42;;;;;;;;;;5071977;28;20034;-56
2023/01/20 02:19:32;;;;;;;53.13;32.35;;;;;;;;;;5072314;28;20032;-54
2023/01/20 02:22:16;;;;;;;54.55;31.90;;;;;;;;;;5073333;28;20047;-58
2023/01/20 02:24:42;;;;;;;55.20;33.17;;;;;;;;;;5072914;28;20029;-58
2023/01/20 02:27:10;;;;;;;53.63;32.88;;;;;;;;;;5073024;28;20081;-56
2023/01/20 02:29:42;;;;;;;55.60;33.58;;;;;;;;;;5073094;28;20028;-58
2023/01/20 02:32:30;;;;;;;54.90;28.35;;;;;;;;;;5072998;28;20090;-58
2023/01/20 02:35:20;;;;;;;49.60;27.80;;;;;;;;;;5070896;28;20086;-55
2023/01/20 02:37:48;;;;;;;59.83;30.73;;;;;;;;;;5065121;28;20032;-55
2023/01/20 02:40:20;;;;;;;60.25;33.03;;;;;;;;;;5071627;28;20496;-53
2023/01/20 02:42:50;;;;;;;54.30;32.40;;;;;;;;;;5071488;28;20070;-56
2023/01/20 02:45:16;;;;;;;57.00;34.03;;;;;;;;;;5071108;28;20450;-58
2023/01/20 02:48:01;;;;;;;55.95;33.05;;;;;;;;;;5072763;28;20025;-58
2023/01/20 02:50:53;;;;;;;57.88;34.78;;;;;;;;;;5072821;28;20024;-58
2023/01/20 02:53:21;;;;;;;54.97;33.90;;;;;;;;;;5069807;28;20666;-57
2023/01/20 02:55:48;;;;;;;50.47;29.50;;;;;;;;;;5072613;28;20062;-56
2023/01/20 02:58:20;;;;;;;50.60;28.52;;;;;;;;;;5072510;28;20501;-57
2023/01/20 03:00:51;;;;;;;50.83;30.60;;;;;;;;;;5072532;28;20024;-59
2023/01/20 03:03:20;;;;;;;59.72;35.78;;;;;;;;;;5072103;28;20023;-57
2023/01/20 03:05:52;;;;;;;55.63;32.50;;;;;;;;;;5072330;28;20033;-59
2023/01/20 03:08:19;;;;;;;51.22;30.38;;;;;;;;;;5072418;28;20380;-56
2023/01/20 03:10:45;;;;;;;62.05;33.50;;;;;;;;;;5072412;28;20462;-59
2023/01/20 03:13:19;;;;;;;50.95;31.42;;;;;;;;;;5070824;28;20024;-57
2023/01/20 03:15:56;;;;;;;57.15;31.42;;;;;;;;;;5072094;28;20027;-57
2023/01/20 03:18:22;;;;;;;56.65;31.13;;;;;;;;;;5072372;28;20021;-58
2023/01/20 03:20:48;;;;;;;52.28;31.73;;;;;;;;;;5071970;28;20017;-57
2023/01/20 03:23:14;;;;;;;61.85;30.23;;;;;;;;;;5071655;28;20024;-53
2023/01/20 03:25:40;;;;;;;53.40;30.83;;;;;;;;;;5071975;28;20060;-60
2023/01/20 03:28:07;;;;;;;59.00;32.00;;;;;;;;;;5071722;28;20450;-54
2023/01/20 03:30:33;;;;;;;54.88;32.58;;;;;;;;;;5070736;28;20028;-56
2023/01/20 03:32:59;;;;;;;52.58;30.00;;;;;;;;;;5071983;28;20032;-56
2023/01/20 03:35:25;;;;;;;54.35;31.30;;;;;;;;;;5070610;28;20426;-56
2023/01/20 03:37:51;;;;;;;49.88;29.45;;;;;;;;;;5070784;28;20024;-54
2023/01/20 03:40:17;;;;;;;56.20;30.80;;;;;;;;;;5072053;28;20029;-60
2023/01/20 03:42:46;;;;;;;49.20;31.77;;;;;;;;;;5071799;28;20039;-58
2023/01/20 03:45:30;;;;;;;49.83;31.60;;;;;;;;;;5071748;28;20032;-58
2023/01/20 03:47:59;;;;;;;51.45;30.10;;;;;;;;;;5071260;28;20029;-58
2023/01/20 03:50:25;;;;;;;;;;;;;;;;;;5072365;28;20020;-57
2023/01/20 03:52:57;;;;;;;53.15;33.20;;;;;;;;;;5070283;28;20380;-59
2023/01/20 03:55:26;;;;;;;53.92;31.65;;;;;;;;;;5069960;28;20031;-55
2023/01/20 03:57:55;;;;;;;53.80;30.42;;;;;;;;;;5071780;28;20107;-58
2023/01/20 04:00:22;;;;;;;52.20;30.17;;;;;;;;;;5071718;28;20046;-60
2023/01/20 04:02:49;;;;;;;47.67;28.67;;;;;;;;;;5071924;28;20108;-57
2023/01/20 04:05:15;;;;;;;45.60;26.60;;;;;;;;;;5071108;28;20476;-58
2023/01/20 04:07:42;;;;;;;48.70;26.60;;;;;;;;;;5071548;28;20492;-56
2023/01/20 04:10:10;;;;;;;51.85;29.15;;;;;;;;;;5071583;28;20016;-57
2023/01/20 04:12:36;;;;;;;40.40;23.70;;;;;;;;;;5070279;28;20024;-55
2023/01/20 04:15:03;;;;;;;47.00;28.52;;;;;;;;;;5071324;28;20030;-55
2023/01/20 04:17:30;;;;;;;48.05;27.25;;;;;;;;;;5071432;28;20028;-59
2023/01/20 04:19:56;;;;;;;46.88;28.50;;;;;;;;;;5071358;28;20021;-58
2023/01/20 04:22:55;;;;;;;42.00;28.02;;;;;;;;;;5070076;28;20025;-58
2023/01/20 04:25:26;;;;;;;48.72;28.45;;;;;;;;;;5037604;28;20040;-57
2023/01/20 04:27:52;;;;;;;52.20;31.08;;;;;;;;;;5070089;28;20078;-56
2023/01/20 04:30:18;;;;;;;52.45;31.30;;;;;;;;;;5071455;28;20031;-60
2023/01/20 04:32:44;;;;;;;44.30;28.35;;;;;;;;;;5071332;28;20032;-60
2023/01/20 04:35:16;;;;;;;50.92;30.00;;;;;;;;;;5070526;28;20033;-59
2023/01/20 04:37:42;;;;;;;49.60;29.48;;;;;;;;;;5071200;28;20358;-60
2023/01/20 04:40:09;;;;;;;47.17;30.13;;;;;;;;;;5071067;28;20602;-60
2023/01/20 04:42:35;;;;;;;47.67;27.48;;;;;;;;;;5071131;28;20031;-59
2023/01/20 04:45:01;;;;;;;40.90;25.10;;;;;;;;;;5070647;28;20111;-54
2023/01/20 04:47:31;;;;;;;47.13;27.60;;;;;;;;;;5069674;28;20028;-57
2023/01/20 04:49:57;;;;;;;42.45;27.20;;;;;;;;;;5069612;28;20032;-56
2023/01/20 04:52:23;;;;;;;43.13;25.33;;;;;;;;;;5069817;28;20024;-59
2023/01/20 04:54:49;;;;;;;41.72;26.85;;;;;;;;;;5070599;28;20503;-54
2023/01/20 04:57:15;;;;;;;45.72;29.63;;;;;;;;;;5070843;28;20025;-59
2023/01/20 04:59:41;;;;;;;41.33;27.33;;;;;;;;;;5074521;28;20122;-59
2023/01/20 05:02:07;;;;;;;49.63;29.13;;;;;;;;;;5074584;28;20028;-59
2023/01/20 05:04:33;;;;;;;46.80;26.75;;;;;;;;;;5073102;28;20032;-57
2023/01/20 05:06:59;;;;;;;44.55;27.65;;;;;;;;;;5074304;28;20028;-58
2023/01/20 05:09:25;;;;;;;44.33;28.33;;;;;;;;;;5074254;28;20028;-60
2023/01/20 05:11:51;;;;;;;47.95;28.15;;;;;;;;;;5074716;28;20028;-57
2023/01/20 05:14:17;;;;;;;47.20;29.55;;;;;;;;;;5073104;28;20035;-59
2023/01/20 05:16:45;;;;;;;48.42;28.50;;;;;;;;;;5074225;28;20419;-56
2023/01/20 05:19:11;;;;;;;47.30;30.23;;;;;;;;;;5075176;28;20108;-57
2023/01/20 05:21:37;;;;;;;43.55;28.05;;;;;;;;;;5073903;28;20035;-53
2023/01/20 05:24:04;;;;;;;47.63;30.08;;;;;;;;;;5074229;28;20025;-57
2023/01/20 05:26:31;;;;;;;53.67;31.42;;;;;;;;;;5074389;28;20501;-58
2023/01/20 05:28:57;;;;;;;50.73;31.97;;;;;;;;;;5073578;28;20099;-55
2023/01/20 05:31:23;;;;;;;51.50;31.10;;;;;;;;;;5074264;28;20342;-57
2023/01/20 05:33:49;;;;;;;47.08;32.35;;;;;;;;;;5074031;28;20447;-60
2023/01/20 05:36:15;;;;;;;51.38;31.95;;;;;;;;;;5073886;28;20039;-59
2023/01/20 05:38:42;;;;;;;53.50;27.58;;;;;;;;;;5074131;28;20028;-61
2023/01/20 05:41:09;;;;;;;43.55;28.35;;;;;;;;;;5074253;28;20039;-59
2023/01/20 05:43:35;;;;;;;43.10;27.67;;;;;;;;;;5073562;28;20025;-56
2023/01/20 05:46:01;;;;;;;44.65;27.60;;;;;;;;;;5074025;28;20444;-54
2023/01/20 05:48:27;;;;;;;44.60;29.02;;;;;;;;;;5074180;28;20081;-56
2023/01/20 05:50:53;;;;;;;46.10;28.48;;;;;;;;;;5072692;28;20016;-59
2023/01/20 05:53:19;;;;;;;38.83;25.17;;;;;;;;;;5073613;28;20032;-57
2023/01/20 05:55:45;;;;;;;40.85;22.95;;;;;;;;;;5072536;28;20052;-54
2023/01/20 05:58:12;;;;;;;40.35;24.83;;;;;;;;;;5074288;28;20027;-54
2023/01/20 06:00:38;;;;;;;31.25;20.20;;;;;;;;;;5078533;28;20023;-55
2023/01/20 06:03:04;;;;;;;40.17;23.65;;;;;;;;;;5078392;28;20026;-57
2023/01/20 06:05:30;;;;;;;39.08;23.00;;;;;;;;;;5074413;28;20399;-53
2023/01/20 06:07:57;;;;;;;40.53;25.23;;;;;;;;;;5073521;28;20020;-54
2023/01/20 06:10:29;;;;;;;42.45;23.05;;;;;;;;;;5072248;28;20016;-58
2023/01/20 06:12:55;;;;;;;36.95;22.58;;;;;;;;;;5072020;28;20449;-59
2023/01/20 06:15:22;;;;;;;39.08;22.83;;;;;;;;;;5073138;28;20035;-57
2023/01/20 06:17:48;;;;;;;40.08;23.83;;;;;;;;;;5072074;28;20055;-59
2023/01/20 06:20:14;;;;;;;40.03;23.45;;;;;;;;;;5073115;28;20025;-56
2023/01/20 06:22:40;;;;;;;39.33;26.02;;;;;;;;;;5072831;28;20032;-56
2023/01/20 06:25:07;;;;;;;46.55;25.83;;;;;;;;;;5072296;28;20024;-53
2023/01/20 06:27:33;;;;;;;38.22;23.55;;;;;;;;;;5071475;28;20424;-53
2023/01/20 06:29:59;;;;;;;42.33;25.20;;;;;;;;;;5072584;28;20019;-59
2023/01/20 06:32:25;;;;;;;43.78;26.27;;;;;;;;;;5072532;28;20469;-57
2023/01/20 06:34:53;;;;;;;49.15;28.38;;;;;;;;;;5072343;28;20052;-58
2023/01/20 06:37:19;;;;;;;41.58;27.35;;;;;;;;;;5047141;23;20046;-61
2023/01/20 06:39:45;;;;;;;44.72;27.35;;;;;;;;;;5027996;28;20045;-58
2023/01/20 06:42:12;;;;;;;43.97;28.52;;;;;;;;;;5027922;28;20364;-58
2023/01/20 06:44:38;;;;;;;48.85;30.85;;;;;;;;;;5027519;28;20030;-55
2023/01/20 06:47:04;;;;;;;53.03;31.23;;;;;;;;;;5027619;28;20022;-53
2023/01/20 06:49:32;;;;;;;48.22;30.88;;;;;;;;;;5012727;28;20018;-54
2023/01/20 06:51:58;;;;;;;46.28;28.58;;;;;;;;;;5027527;28;20479;-55
2023/01/20 06:54:24;;;;;;;56.83;31.15;;;;;;;;;;5012231;28;20084;-61
2023/01/20 06:56:50;;;;;;;47.92;31.02;;;;;;;;;;5012275;28;20120;-62
2023/01/20 06:59:16;;;;;;;46.55;28.98;;;;;;;;;;5012371;28;20462;-56
2023/01/20 07:01:42;;;;;;;45.10;27.08;;;;;;;;;;5012743;28;20061;-59
2023/01/20 07:04:11;;;;;;;45.08;27.55;;;;;;;;;;5027302;28;20032;-59
2023/01/20 07:06:39;;;;;;;38.88;23.77;;;;;;;;;;5012127;28;20050;-57
2023/01/20 07:09:09;;;;;;;43.30;26.65;;;;;;;;;;5012505;28;20040;-57
2023/01/20 07:11:35;;;;;;;44.25;25.70;;;;;;;;;;5012179;28;20034;-54
2023/01/20 07:14:01;;;;;;;44.97;25.45;;;;;;;;;;5011865;28;20076;-55
2023/01/20 07:16:27;;;;;;;52.40;26.25;;;;;;;;;;5011998;28;20025;-60
2023/01/20 07:18:54;;;;;;;41.72;25.73;;;;;;;;;;5012360;28;20037;-60
2023/01/20 07:21:20;;;;;;;44.40;25.15;;;;;;;;;;5012430;28;20044;-57
2023/01/20 07:23:46;;;;;;;43.45;26.52;;;;;;;;;;5027159;28;20033;-53
2023/01/20 07:26:14;;;;;;;42.08;24.92;;;;;;;;;;5027369;28;20464;-55
2023/01/20 07:28:40;;;;;;;41.33;27.23;;;;;;;;;;5027162;28;20037;-59
2023/01/20 07:31:08;;;;;;;38.10;24.10;;;;;;;;;;5027377;28;20029;-55
2023/01/20 07:33:34;;;;;;;48.30;29.65;;;;;;;;;;5011712;28;20339;-57
2023/01/20 07:36:00;;;;;;;44.97;27.88;;;;;;;;;;5011959;28;20026;-56
2023/01/20 07:38:27;;;;;;;46.97;28.45;;;;;;;;;;5012124;28;20026;-58
2023/01/20 07:40:56;;;;;;;41.13;28.05;;;;;;;;;;5011728;28;20026;-56
2023/01/20 07:43:22;;;;;;;42.60;26.58;;;;;;;;;;5011345;28;20033;-60
2023/01/20 07:45:48;;;;;;;44.55;27.23;;;;;;;;;;5026804;28;20390;-61
2023/01/20 07:48:14;;;;;;;46.17;28.90;;;;;;;;;;5011913;28;20021;-61
2023/01/20 07:50:40;;;;;;;54.65;27.77;;;;;;;;;;5026752;28;20397;-59
2023/01/20 07:53:06;;;;;;;46.08;27.52;;;;;;;;;;5011427;28;20109;-62
2023/01/20 07:55:33;;;;;;;51.10;28.42;;;;;;;;;;5011449;28;20072;-63
2023/01/20 07:57:59;;;;;;;43.42;28.90;;;;;;;;;;5011908;28;20042;-62
2023/01/20 08:00:25;;;;;;;48.85;27.80;;;;;;;;;;5011715;28;20053;-62
2023/01/20 08:02:51;;;;;;;45.83;27.27;;;;;;;;;;5027059;28;20061;-60
2023/01/20 08:05:17;;;;;;;47.10;27.35;;;;;;;;;;5011728;28;20113;-60
2023/01/20 08:07:43;;;;;;;47.17;28.52;;;;;;;;;;5012264;28;20490;-63
2023/01/20 08:10:09;;;;;;;47.25;28.38;;;;;;;;;;5012050;28;20100;-57
2023/01/20 08:12:35;;;;;;;47.03;28.80;;;;;;;;;;5026812;28;20111;-62
2023/01/20 08:15:01;;;;;;;53.65;30.85;;;;;;;;;;5011376;28;20033;-63
2023/01/20 08:17:27;;;;;;;53.67;30.98;;;;;;;;;;5011586;28;20026;-59
2023/01/20 08:19:53;;;;;;;52.53;30.95;;;;;;;;;;5011668;28;20458;-62
2023/01/20 08:22:19;;;;;;;49.35;30.10;;;;;;;;;;5011817;28;20033;-61
2023/01/20 08:24:45;;;;;;;51.58;31.55;;;;;;;;;;5023537;28;20052;-61
2023/01/20 08:27:11;;;;;;;49.65;29.98;;;;;;;;;;5011148;28;20364;-62
2023/01/20 08:29:37;;;;;;;52.15;30.13;;;;;;;;;;5011241;28;20029;-59
2023/01/20 08:32:03;;;;;;;41.65;25.95;;;;;;;;;;5007473;28;20019;-60
2023/01/20 08:34:29;;;;;;;46.45;26.50;;;;;;;;;;4994239;28;20120;-60
2023/01/20 08:36:56;;;;;;;44.85;26.45;;;;;;;;;;4995655;28;20053;-60
2023/01/20 08:39:22;;;;;;;46.65;27.55;;;;;;;;;;4994508;28;20034;-58
2023/01/20 08:41:49;;;;;;;48.50;30.17;;;;;;;;;;5009765;28;20466;-63
2023/01/20 08:44:16;;;;;;;42.38;25.00;;;;;;;;;;5015030;28;20084;-59
2023/01/20 08:46:42;;;;;;;44.75;26.45;;;;;;;;;;5014978;28;20026;-63
2023/01/20 08:49:10;;;;;;;44.50;26.08;;;;;;;;;;5015030;28;20026;-57
2023/01/20 08:51:36;;;;;;;42.55;27.15;;;;;;;;;;5014795;28;20026;-63
2023/01/20 08:54:03;;;;;;;39.00;23.77;;;;;;;;;;5013700;28;20049;-51
2023/01/20 08:56:29;;;;;;;40.42;22.45;;;;;;;;;;5015075;28;20032;-54
2023/01/20 08:58:56;;;;;;;39.92;24.23;;;;;;;;;;5000574;28;20035;-57
2023/01/20 09:01:26;;;;;;;39.25;23.45;;;;;;;;;;4995327;28;20109;-62
2023/01/20 09:03:53;;;;;;;38.35;23.90;;;;;;;;;;4999838;28;20064;-59
2023/01/20 09:06:20;;;;;;;38.13;23.17;;;;;;;;;;5033230;28;20028;-58
2023/01/20 09:08:47;;;;;;;36.13;21.67;;;;;;;;;;5034584;28;20033;-59
2023/01/20 09:11:14;;;;;;;33.95;21.30;;;;;;;;;;5034129;28;20052;-60
2023/01/20 09:13:40;;;;;;;37.03;21.65;;;;;;;;;;5034181;28;20022;-59
2023/01/20 09:16:07;;;;;;;40.00;22.77;;;;;;;;;;5033003;28;20026;-57
2023/01/20 09:18:34;;;;;;;36.70;21.98;;;;;;;;;;5033517;28;20026;-57
2023/01/20 09:21:09;;;;;;;39.78;24.05;;;;;;;;;;5033479;28;20025;-59
2023/01/20 09:23:36;;;;;;;39.92;24.33;;;;;;;;;;5032681;28;20026;-58
2023/01/20 09:26:03;;;;;;;38.55;24.10;;;;;;;;;;5018315;28;20029;-58
2023/01/20 09:28:29;;;;;;;44.17;26.08;;;;;;;;;;5013097;28;20032;-60
2023/01/20 09:30:58;;;;;;;41.33;23.52;;;;;;;;;;5012969;28;20030;-61
2023/01/20 09:33:24;;;;;;;39.78;23.52;;;;;;;;;;5014057;28;20140;-61
2023/01/20 09:35:57;;;;;;;40.05;22.38;;;;;;;;;;5013973;28;20026;-63
2023/01/20 09:43:58;;;;;;;39.50;23.15;;;;;;;;;;5012820;28;20105;-60
2023/01/20 09:47:18;;;;;;;34.83;22.77;;;;;;;;;;5013469;28;20059;-58
2023/01/20 09:55:23;;;;;;;33.78;20.42;;;;;;;;;;5013994;28;20099;-60
2023/01/20 09:57:51;;;;;;;34.40;18.80;;;;;;;;;;5013431;28;20026;-58
2023/01/20 10:00:20;;;;;;;34.72;20.55;;;;;;;;;;5013871;28;20364;-58
2023/01/20 10:02:50;;;;;;;33.78;20.85;;;;;;;;;;5013847;28;20026;-60
2023/01/20 10:05:25;;;;;;;37.35;23.20;;;;;;;;;;5013586;28;20119;-61
2023/01/20 10:08:07;;;;;;;34.50;20.58;;;;;;;;;;5012009;28;20064;-62
2023/01/20 10:10:45;;;;;;;33.88;22.77;;;;;;;;;;5012302;28;20509;-58
2023/01/20 10:13:13;;;;;;;;;;;;;;;;;;5013469;28;20083;-60
2023/01/20 10:15:41;;;;;;;31.00;19.52;;;;;;;;;;5011905;28;19944;-62
2023/01/20 10:18:12;;;;;;;33.42;19.65;;;;;;;;;;5013423;28;20022;-61
2023/01/20 10:20:42;;;;;;;31.05;17.45;;;;;;;;;;5012143;28;20029;-60
2023/01/20 10:23:08;;;;;;;31.90;18.05;;;;;;;;;;5013727;28;20036;-60
2023/01/20 10:25:39;;;;;;;29.30;19.20;;;;;;;;;;5013216;28;20026;-61
2023/01/20 10:28:13;;;;;;;31.02;18.25;;;;;;;;;;5013343;28;20101;-61
2023/01/20 10:30:40;;;;;;;30.58;17.83;;;;;;;;;;5011958;28;20038;-61
2023/01/20 10:33:09;;;;;;;29.30;18.77;;;;;;;;;;5012839;28;20298;-60
2023/01/20 10:35:55;;;;;;;29.55;18.50;;;;;;;;;;5011324;28;20033;-62
2023/01/20 10:38:26;;;;;;;27.75;18.10;;;;;;;;;;5013642;28;20040;-61
2023/01/20 10:40:59;;;;;;;29.60;18.05;;;;;;;;;;5013593;28;20055;-61
2023/01/20 10:43:26;;;;;;;29.13;18.20;;;;;;;;;;5012711;28;20026;-60
2023/01/20 10:46:10;;;;;;;30.02;18.23;;;;;;;;;;5012938;28;20251;-60
2023/01/20 10:48:39;;;;;;;28.17;17.30;;;;;;;;;;5012762;28;20483;-61
2023/01/20 10:51:31;;;;;;;31.42;18.40;;;;;;;;;;5012822;28;20435;-62
2023/01/20 10:54:06;;;;;;;28.10;17.35;;;;;;;;;;4981505;28;20375;-59
2023/01/20 10:56:38;;;;;;;30.45;17.70;;;;;;;;;;5012415;28;20084;-62
2023/01/20 10:59:12;;;;;;;26.98;17.00;;;;;;;;;;5012886;28;20059;-57
2023/01/20 11:01:39;;;;;;;28.83;16.60;;;;;;;;;;5012356;28;20150;-59
2023/01/20 11:04:05;;;;;;;32.63;18.10;;;;;;;;;;5011872;28;20033;-56
2023/01/20 11:06:31;;;;;;;29.85;17.65;;;;;;;;;;5012263;28;20038;-58
2023/01/20 11:08:59;;;;;;;27.80;16.67;;;;;;;;;;5011210;28;20018;-60
2023/01/20 11:11:25;;;;;;;27.63;17.17;;;;;;;;;;5011345;28;20108;-56
2023/01/20 11:13:52;;;;;;;30.75;17.45;;;;;;;;;;5011133;28;20042;-61
2023/01/20 11:16:23;;;;;;;23.60;15.75;;;;;;;;;;4663013;28;10000215;-62
2023/01/20 11:19:02;;;;;;;25.45;16.30;;;;;;;;;;5005790;28;20044;-61
2023/01/20 11:21:30;;;;;;;29.35;18.25;;;;;;;;;;5007705;28;20186;-61
2023/01/20 11:23:57;;;;;;;30.60;18.40;;;;;;;;;;5008732;28;20498;-63
2023/01/20 11:26:23;;;;;;;28.88;18.20;;;;;;;;;;5002321;28;20025;-62
2023/01/20 11:28:49;;;;;;;29.13;17.40;;;;;;;;;;5007649;28;20025;-65
2023/01/20 11:31:15;;;;;;;27.92;16.52;;;;;;;;;;5009025;28;20048;-63
2023/01/20 11:33:53;;;;;;;27.52;17.38;;;;;;;;;;5005775;28;20621;-65
2023/01/20 11:36:22;;;;;;;32.08;16.65;;;;;;;;;;4989618;28;20059;-63
2023/01/20 11:38:50;;;;;;;29.17;16.45;;;;;;;;;;4989368;28;20395;-64
2023/01/20 11:41:20;;;;;;;31.00;17.10;;;;;;;;;;4988455;28;20081;-62
2023/01/20 11:43:47;;;;;;;37.45;18.17;;;;;;;;;;4989467;28;20026;-64
2023/01/20 11:46:21;;;;;;;30.98;17.77;;;;;;;;;;4989655;28;20540;-63
2023/01/20 11:48:47;;;;;;;29.92;17.77;;;;;;;;;;4989456;28;20037;-63
2023/01/20 11:51:26;;;;;;;33.00;17.33;;;;;;;;;;4987672;28;20130;-65
2023/01/20 11:53:52;;;;;;;;;;;;;;;;;;4988696;28;20095;-64
2023/01/20 11:56:23;;;;;;;30.50;18.30;;;;;;;;;;4988522;28;20311;-64
2023/01/20 11:58:50;;;;;;;27.48;17.77;;;;;;;;;;4990310;28;20027;-60
2023/01/20 12:01:48;;;;;;;28.48;17.98;;;;;;;;;;4991619;28;20112;-64
2023/01/20 12:04:20;;;;;;;28.42;18.05;;;;;;;;;;4991525;28;20495;-63
2023/01/20 12:07:09;;;;;;;30.20;18.25;;;;;;;;;;4991737;28;20030;-63
2023/01/20 12:09:41;;;;;;;29.90;19.33;;;;;;;;;;4985144;28;20034;-62
2023/01/20 12:12:07;;;;;;;28.80;19.05;;;;;;;;;;4991962;28;20022;-63
2023/01/20 12:14:47;;;;;;;30.10;17.95;;;;;;;;;;4990378;28;20031;-61
2023/01/20 12:17:33;;;;;;;27.15;18.67;;;;;;;;;;4995094;28;20025;-60
2023/01/20 12:20:08;;;;;;;33.40;18.90;;;;;;;;;;5000847;28;20052;-63
2023/01/20 12:22:40;;;;;;;29.90;19.17;;;;;;;;;;5010030;28;20394;-62
2023/01/20 12:25:15;;;;;;;31.73;20.33;;;;;;;;;;5010739;28;20110;-64
2023/01/20 12:27:49;;;;;;;30.60;18.58;;;;;;;;;;5010964;28;20429;-65
2023/01/20 12:30:22;;;;;;;30.75;18.52;;;;;;;;;;5011138;28;20038;-63
2023/01/20 12:32:49;;;;;;;32.22;20.25;;;;;;;;;;5010486;28;20026;-64
2023/01/20 12:35:15;;;;;;;31.58;18.67;;;;;;;;;;5011464;28;20517;-64
2023/01/20 12:37:41;;;;;;;30.58;19.30;;;;;;;;;;5018199;23;20415;-62
2023/01/20 12:40:08;;;;;;;34.42;20.92;;;;;;;;;;4991775;28;20033;-62
2023/01/20 12:42:54;;;;;;;29.67;18.50;;;;;;;;;;5008250;28;20101;-62
2023/01/20 12:45:20;;;;;;;31.55;18.92;;;;;;;;;;4991215;28;20026;-61
2023/01/20 12:48:03;;;;;;;31.23;19.25;;;;;;;;;;4993698;28;20037;-62
2023/01/20 12:50:51;;;;;;;33.13;18.90;;;;;;;;;;4976223;28;20487;-62
2023/01/20 12:53:20;;;;;;;30.47;18.50;;;;;;;;;;4975906;28;20508;-61
2023/01/20 12:55:54;;;;;;;28.17;18.00;;;;;;;;;;4972918;28;20281;-64
2023/01/20 12:58:39;;;;;;;31.40;18.10;;;;;;;;;;4973038;28;20105;-60
2023/01/20 13:01:23;;;;;;;31.25;19.13;;;;;;;;;;4972363;28;20495;-63
2023/01/20 13:03:54;;;;;;;28.55;18.50;;;;;;;;;;4972124;28;20054;-62
2023/01/20 13:06:49;;;;;;;30.17;19.38;;;;;;;;;;4972874;28;20027;-62
2023/01/20 13:09:20;;;;;;;30.00;18.27;;;;;;;;;;4967463;28;20033;-61
2023/01/20 13:11:46;;;;;;;27.63;17.27;;;;;;;;;;4972092;28;20027;-61
2023/01/20 13:14:40;;;;;;;28.02;18.15;;;;;;;;;;4971040;28;20058;-61
2023/01/20 13:17:12;;;;;;;27.73;18.17;;;;;;;;;;4985879;28;20514;-62
2023/01/20 13:19:40;;;;;;;27.02;16.98;;;;;;;;;;4972899;28;20035;-63
2023/01/20 13:22:19;;;;;;;31.50;19.47;;;;;;;;;;4974879;28;20029;-63
2023/01/20 13:24:47;;;;;;;31.30;18.95;;;;;;;;;;4976919;28;20023;-62
2023/01/20 13:27:14;;;;;;;29.33;17.67;;;;;;;;;;4994332;28;20046;-62
2023/01/20 13:29:41;;;;;;;30.58;19.15;;;;;;;;;;4994690;28;20026;-62
2023/01/20 13:32:26;;;;;;;30.70;18.75;;;;;;;;;;4994621;28;20019;-63
2023/01/20 13:34:52;;;;;;;36.85;20.52;;;;;;;;;;4994223;28;20038;-63
2023/01/20 13:37:23;;;;;;;30.27;18.80;;;;;;;;;;4994478;28;20105;-61
2023/01/20 13:39:50;;;;;;;30.08;18.70;;;;;;;;;;4994135;28;20030;-62
2023/01/20 13:42:31;;;;;;;31.33;20.10;;;;;;;;;;4994274;28;20031;-62
2023/01/20 13:45:13;;;;;;;33.53;19.98;;;;;;;;;;4994035;28;20089;-62
2023/01/20 13:47:58;;;;;;;28.70;19.27;;;;;;;;;;4993634;28;20084;-62
2023/01/20 13:50:29;;;;;;;29.23;18.45;;;;;;;;;;4992903;28;20027;-63
2023/01/20 13:53:03;;;;;;;31.63;19.95;;;;;;;;;;4991616;28;20038;-63
2023/01/20 13:55:44;;;;;;;28.55;18.45;;;;;;;;;;4992435;28;20033;-62
2023/01/20 13:58:13;;;;;;;30.25;18.92;;;;;;;;;;4992170;28;20030;-59
2023/01/20 14:00:39;;;;;;;29.05;18.13;;;;;;;;;;4992168;28;20098;-63
2023/01/20 14:03:17;;;;;;;34.13;19.10;;;;;;;;;;4992278;28;20475;-63
2023/01/20 14:05:48;;;;;;;34.40;18.77;;;;;;;;;;4993661;28;20118;-63
2023/01/20 14:08:14;;;;;;;28.70;17.40;;;;;;;;;;4993652;28;20387;-61
2023/01/20 14:10:40;;;;;;;30.15;18.08;;;;;;;;;;4993875;28;20432;-62
2023/01/20 14:13:23;;;;;;;26.40;15.85;;;;;;;;;;4991574;28;20053;-61
2023/01/20 14:15:51;;;;;;;24.10;14.52;;;;;;;;;;4993674;28;20422;-61
2023/01/20 14:18:18;;;;;;;26.33;15.48;;;;;;;;;;4980066;28;20035;-62
2023/01/20 14:20:55;;;;;;;29.13;17.20;;;;;;;;;;4973913;28;20066;-62
2023/01/20 14:23:26;;;;;;;34.63;16.38;;;;;;;;;;4974187;28;20432;-63
2023/01/20 14:25:59;;;;;;;28.55;16.30;;;;;;;;;;4984805;28;20022;-63
2023/01/20 14:28:25;;;;;;;33.53;18.77;;;;;;;;;;4993434;28;20041;-61
2023/01/20 14:31:04;;;;;;;31.23;18.45;;;;;;;;;;4992618;28;20084;-63
2023/01/20 14:33:30;;;;;;;32.70;18.10;;;;;;;;;;4993289;28;20022;-62
2023/01/20 14:35:56;;;;;;;32.58;17.95;;;;;;;;;;4992066;28;20026;-60
2023/01/20 14:38:22;;;;;;;32.13;18.60;;;;;;;;;;4993748;28;20046;-59
2023/01/20 14:40:49;;;;;;;30.98;18.35;;;;;;;;;;4992071;28;20368;-61